createdAt,value
2024-05-09T00:00:42.635Z,95.9420
2024-05-09T00:01:43.811Z,96.2478
2024-05-09T00:02:44.679Z,96.2765
2024-05-09T00:03:46.072Z,96.1709
2024-05-09T00:04:47.088Z,96.0363
2024-05-09T00:05:47.792Z,96.1776
2024-05-09T00:06:48.457Z,96.1233
2024-05-09T00:07:49.009Z,96.0412
2024-05-09T00:08:49.670Z,95.8688
2024-05-09T00:09:51.355Z,95.7391
2024-05-09T00:10:52.078Z,95.7763
2024-05-09T00:11:52.775Z,96.0159
2024-05-09T00:12:53.258Z,96.0375
2024-05-09T00:13:53.969Z,96.0882
2024-05-09T00:14:54.490Z,96.1663
2024-05-09T00:15:56.359Z,96.1486
2024-05-09T00:16:57.170Z,96.1721
2024-05-09T00:17:57.997Z,96.2924
2024-05-09T00:18:58.936Z,96.3522
2024-05-09T00:19:59.703Z,96.2982
2024-05-09T00:21:00.594Z,96.2689
2024-05-09T00:22:01.483Z,96.3009
2024-05-09T00:23:02.221Z,96.2698
2024-05-09T00:24:03.478Z,96.2341
2024-05-09T00:25:04.194Z,96.2118
2024-05-09T00:26:04.877Z,96.1874
2024-05-09T00:27:05.775Z,96.1660
2024-05-09T00:28:09.055Z,96.1236
2024-05-09T00:29:10.055Z,96.1520
2024-05-09T00:30:14.509Z,96.2917
2024-05-09T00:31:18.346Z,96.1364
2024-05-09T00:32:19.480Z,96.1642
2024-05-09T00:33:20.855Z,96.1312
2024-05-09T00:34:22.148Z,96.0894
2024-05-09T00:35:23.623Z,96.0769
2024-05-09T00:36:24.765Z,96.1434
2024-05-09T00:37:25.841Z,96.2762
2024-05-09T00:38:26.989Z,96.3552
2024-05-09T00:39:28.163Z,96.4080
2024-05-09T00:40:35.766Z,96.5124
2024-05-09T00:41:36.639Z,96.5606
2024-05-09T00:42:38.805Z,96.5570
2024-05-09T00:43:40.062Z,96.5319
2024-05-09T00:44:41.318Z,96.4822
2024-05-09T00:45:42.607Z,96.5045
2024-05-09T00:46:43.905Z,96.5682
2024-05-09T00:47:45.201Z,96.5698
2024-05-09T00:48:46.552Z,96.5789
2024-05-09T00:49:47.664Z,96.6528
2024-05-09T00:50:48.854Z,96.6821
2024-05-09T00:51:49.824Z,96.8008
2024-05-09T00:52:50.892Z,96.8981
2024-05-09T00:53:51.856Z,96.8942
2024-05-09T00:54:52.736Z,96.9357
2024-05-09T00:55:53.581Z,97.1026
2024-05-09T00:56:54.258Z,97.1029
2024-05-09T00:57:55.082Z,97.1310
2024-05-09T00:58:55.841Z,96.9757
2024-05-09T00:59:56.906Z,96.9314
2024-05-09T01:00:57.508Z,96.9525
2024-05-09T01:01:58.295Z,96.9918
2024-05-09T01:02:59.132Z,97.0217
2024-05-09T01:03:59.834Z,96.9677
2024-05-09T01:05:00.562Z,96.9528
2024-05-09T01:06:01.178Z,96.9781
2024-05-09T01:07:01.811Z,96.9137
2024-05-09T01:08:02.453Z,96.8808
2024-05-09T01:09:03.026Z,96.8881
2024-05-09T01:10:05.578Z,96.9107
2024-05-09T01:11:07.881Z,96.8814
2024-05-09T01:12:08.606Z,96.8597
2024-05-09T01:13:09.158Z,96.8188
2024-05-09T01:14:09.616Z,96.8286
2024-05-09T01:15:10.028Z,96.8597
2024-05-09T01:16:10.431Z,96.7160
2024-05-09T01:17:10.867Z,96.6925
2024-05-09T01:18:12.408Z,96.6690
2024-05-09T01:19:14.390Z,96.6403
2024-05-09T01:20:20.216Z,96.5008
2024-05-09T01:21:21.526Z,96.4236
2024-05-09T01:22:21.816Z,96.3418
2024-05-09T01:23:22.131Z,96.3116
2024-05-09T01:24:22.517Z,96.2377
2024-05-09T01:25:22.818Z,96.1443
2024-05-09T01:26:23.053Z,95.9939
2024-05-09T01:27:23.596Z,96.0439
2024-05-09T01:28:23.847Z,96.0732
2024-05-09T01:29:24.233Z,96.0583
2024-05-09T01:30:31.836Z,96.0876
2024-05-09T01:31:31.165Z,96.1328
2024-05-09T01:32:31.627Z,96.2161
2024-05-09T01:33:33.273Z,96.2643
2024-05-09T01:34:33.960Z,96.2988
2024-05-09T01:35:34.286Z,96.1685
2024-05-09T01:36:34.682Z,96.1529
2024-05-09T01:37:34.833Z,96.2084
2024-05-09T01:38:35.263Z,96.2823
2024-05-09T01:39:35.730Z,96.2792
2024-05-09T01:40:38.930Z,96.4031
2024-05-09T01:41:40.860Z,96.4050
2024-05-09T01:42:41.076Z,96.3363
2024-05-09T01:43:41.887Z,96.1065
2024-05-09T01:44:42.136Z,96.0778
2024-05-09T01:45:42.415Z,96.0198
2024-05-09T01:46:42.698Z,95.8263
2024-05-09T01:47:43.159Z,95.8825
2024-05-09T01:48:44.558Z,95.8907
2024-05-09T01:49:44.989Z,95.8563
2024-05-09T01:50:45.494Z,95.9405
2024-05-09T01:51:46.023Z,95.7732
2024-05-09T01:52:46.277Z,95.6347
2024-05-09T01:53:46.505Z,95.7024
2024-05-09T01:54:46.697Z,95.6753
2024-05-09T01:55:46.979Z,95.3555
2024-05-09T01:56:47.337Z,95.4864
2024-05-09T01:57:47.599Z,95.5950
2024-05-09T01:58:47.781Z,95.4162
2024-05-09T01:59:48.008Z,95.4653
2024-05-09T02:00:48.319Z,95.5242
2024-05-09T02:01:56.632Z,95.4543
2024-05-09T02:02:54.946Z,95.4620
2024-05-09T02:03:55.412Z,95.3433
2024-05-09T02:04:56.158Z,95.1165
2024-05-09T02:05:56.517Z,95.2157
2024-05-09T02:06:57.132Z,95.3274
2024-05-09T02:07:57.392Z,95.5975
2024-05-09T02:08:57.546Z,95.2255
2024-05-09T02:09:58.110Z,95.1885
2024-05-09T02:10:58.532Z,95.2313
2024-05-09T02:11:59.086Z,95.3787
2024-05-09T02:12:59.334Z,95.4015
2024-05-09T02:13:59.700Z,95.4574
2024-05-09T02:14:59.934Z,95.6716
2024-05-09T02:16:00.217Z,95.3793
2024-05-09T02:17:00.556Z,95.2459
2024-05-09T02:18:01.121Z,95.3680
2024-05-09T02:19:01.739Z,95.3960
2024-05-09T02:20:02.115Z,95.2770
2024-05-09T02:21:02.720Z,95.2587
2024-05-09T02:22:02.950Z,95.2886
2024-05-09T02:23:03.305Z,95.2642
2024-05-09T02:24:03.627Z,95.1611
2024-05-09T02:25:03.841Z,94.9609
2024-05-09T02:26:04.497Z,95.0875
2024-05-09T02:27:04.741Z,95.1455
2024-05-09T02:28:05.080Z,94.6603
2024-05-09T02:29:05.393Z,94.6792
2024-05-09T02:30:15.150Z,94.7399
2024-05-09T02:31:13.510Z,94.7341
2024-05-09T02:32:14.104Z,94.8421
2024-05-09T02:33:15.002Z,94.8553
2024-05-09T02:34:16.310Z,94.7765
2024-05-09T02:35:16.604Z,94.8421
2024-05-09T02:36:16.771Z,94.9490
2024-05-09T02:37:16.937Z,94.8547
2024-05-09T02:38:18.221Z,94.9480
2024-05-09T02:39:18.438Z,94.7985
2024-05-09T02:40:25.665Z,94.7402
2024-05-09T02:41:25.977Z,94.6856
2024-05-09T02:42:27.204Z,94.7097
2024-05-09T02:43:27.464Z,94.5895
2024-05-09T02:44:27.763Z,94.5376
2024-05-09T02:45:28.065Z,94.8434
2024-05-09T02:46:28.287Z,94.9560
2024-05-09T02:47:28.808Z,94.5965
2024-05-09T02:48:29.149Z,94.4744
2024-05-09T02:49:29.573Z,94.7158
2024-05-09T02:50:37.036Z,94.9648
2024-05-09T02:51:36.306Z,95.0311
2024-05-09T02:52:36.596Z,95.0655
2024-05-09T02:53:36.903Z,95.1888
2024-05-09T02:54:37.241Z,95.2407
2024-05-09T02:55:37.533Z,95.3457
2024-05-09T02:56:37.991Z,95.4006
2024-05-09T02:57:38.413Z,95.4885
2024-05-09T02:58:38.795Z,95.6240
2024-05-09T02:59:39.078Z,95.6634
2024-05-09T03:00:41.666Z,95.5639
2024-05-09T03:01:45.743Z,95.5865
2024-05-09T03:02:46.164Z,95.5377
2024-05-09T03:03:46.559Z,95.5084
2024-05-09T03:04:47.024Z,95.4266
2024-05-09T03:05:47.495Z,95.3381
2024-05-09T03:06:47.945Z,95.3066
2024-05-09T03:07:48.124Z,95.4455
2024-05-09T03:08:48.420Z,95.4424
2024-05-09T03:09:48.606Z,95.4022
2024-05-09T03:10:49.097Z,95.4745
2024-05-09T03:11:49.510Z,95.5300
2024-05-09T03:12:49.814Z,95.5828
2024-05-09T03:13:50.024Z,95.6326
2024-05-09T03:14:50.297Z,95.6481
2024-05-09T03:15:50.722Z,95.7262
2024-05-09T03:16:51.066Z,95.7140
2024-05-09T03:17:51.696Z,95.7073
2024-05-09T03:18:52.075Z,95.6005
2024-05-09T03:19:52.413Z,95.5233
2024-05-09T03:20:52.766Z,95.5755
2024-05-09T03:21:52.943Z,95.7354
2024-05-09T03:22:56.323Z,95.7925
2024-05-09T03:23:57.513Z,95.7302
2024-05-09T03:24:57.731Z,95.6106
2024-05-09T03:25:58.057Z,95.6347
2024-05-09T03:26:58.441Z,95.6704
2024-05-09T03:27:58.686Z,95.7201
2024-05-09T03:28:58.969Z,95.4669
2024-05-09T03:29:59.157Z,95.5389
2024-05-09T03:30:59.321Z,95.5309
2024-05-09T03:31:59.732Z,95.4882
2024-05-09T03:33:00.341Z,95.4916
2024-05-09T03:34:00.827Z,95.4907
2024-05-09T03:35:01.087Z,95.3811
2024-05-09T03:36:01.249Z,95.0692
2024-05-09T03:37:01.531Z,95.0539
2024-05-09T03:38:01.777Z,95.1977
2024-05-09T03:39:02.097Z,95.3045
2024-05-09T03:40:02.875Z,95.2010
2024-05-09T03:41:03.271Z,95.2413
2024-05-09T03:42:03.612Z,95.1244
2024-05-09T03:43:03.830Z,95.1495
2024-05-09T03:44:04.083Z,95.2117
2024-05-09T03:45:04.328Z,95.3515
2024-05-09T03:46:04.515Z,95.4781
2024-05-09T03:47:04.785Z,95.4003
2024-05-09T03:48:05.522Z,95.0082
2024-05-09T03:49:05.893Z,94.8809
2024-05-09T03:50:11.962Z,95.2053
2024-05-09T03:51:12.509Z,95.0372
2024-05-09T03:52:12.809Z,95.0860
2024-05-09T03:53:13.184Z,94.9587
2024-05-09T03:54:13.528Z,94.9062
2024-05-09T03:55:13.725Z,95.0014
2024-05-09T03:56:14.020Z,95.1672
2024-05-09T03:57:14.213Z,95.2996
2024-05-09T03:58:14.564Z,95.4357
2024-05-09T03:59:14.896Z,95.4650
2024-05-09T04:00:21.950Z,95.4366
2024-05-09T04:01:21.414Z,95.4553
2024-05-09T04:02:21.811Z,95.5886
2024-05-09T04:03:22.565Z,95.6945
2024-05-09T04:04:22.959Z,95.7513
2024-05-09T04:05:23.192Z,95.8196
2024-05-09T04:06:23.418Z,95.7848
2024-05-09T04:07:23.631Z,95.7977
2024-05-09T04:08:23.901Z,95.8282
2024-05-09T04:09:24.166Z,95.9060
2024-05-09T04:10:31.181Z,95.9350
2024-05-09T04:11:30.467Z,95.9216
2024-05-09T04:12:30.844Z,95.8172
2024-05-09T04:13:31.020Z,95.6469
2024-05-09T04:14:31.319Z,95.5248
2024-05-09T04:15:31.866Z,95.4754
2024-05-09T04:16:32.344Z,95.5377
2024-05-09T04:17:33.006Z,95.5975
2024-05-09T04:18:33.451Z,95.4971
2024-05-09T04:19:33.722Z,95.3674
2024-05-09T04:20:39.007Z,95.2660
2024-05-09T04:21:40.760Z,95.5236
2024-05-09T04:22:52.957Z,95.4503
2024-05-09T04:23:53.162Z,95.3771
2024-05-09T04:24:53.295Z,95.0161
2024-05-09T04:26:05.285Z,95.2033
2024-05-09T04:27:05.389Z,95.3445
2024-05-09T04:28:17.367Z,95.3714
2024-05-09T04:29:17.494Z,94.9767
2024-05-09T04:30:26.221Z,94.9017
2024-05-09T04:31:24.540Z,95.0906
2024-05-09T04:32:25.467Z,95.1052
2024-05-09T04:33:25.802Z,95.1189
2024-05-09T04:34:26.121Z,95.0103
2024-05-09T04:35:26.372Z,95.1678
2024-05-09T04:36:26.568Z,95.3283
2024-05-09T04:37:26.670Z,95.0768
2024-05-09T04:38:26.672Z,94.6423
2024-05-09T04:39:26.817Z,94.8632
2024-05-09T04:40:33.396Z,95.0805
2024-05-09T04:41:34.028Z,95.3365
2024-05-09T04:42:34.175Z,95.3954
2024-05-09T04:43:34.337Z,95.5480
2024-05-09T04:44:34.607Z,95.2755
2024-05-09T04:45:35.072Z,95.1458
2024-05-09T04:46:35.479Z,95.3201
2024-05-09T04:47:35.861Z,95.4736
2024-05-09T04:48:36.221Z,94.9883
2024-05-09T04:49:37.504Z,94.9590
2024-05-09T04:50:39.307Z,94.8312
2024-05-09T04:51:40.356Z,94.5040
2024-05-09T04:52:40.510Z,94.5333
2024-05-09T04:53:40.936Z,94.8077
2024-05-09T04:54:41.258Z,94.5483
2024-05-09T04:55:41.438Z,94.6279
2024-05-09T04:56:41.562Z,94.7396
2024-05-09T04:57:41.754Z,94.7753
2024-05-09T04:58:42.128Z,94.6706
2024-05-09T04:59:42.284Z,94.7066
2024-05-09T05:00:42.613Z,95.1980
2024-05-09T05:01:42.779Z,95.4611
2024-05-09T05:02:43.229Z,95.4434
2024-05-09T05:03:43.596Z,95.4122
2024-05-09T05:04:43.985Z,95.4092
2024-05-09T05:05:45.441Z,95.3768
2024-05-09T05:06:46.348Z,95.2740
2024-05-09T05:07:46.504Z,95.1434
2024-05-09T05:08:46.718Z,95.2200
2024-05-09T05:09:46.847Z,94.8623
2024-05-09T05:10:47.710Z,94.9123
2024-05-09T05:11:48.619Z,95.1037
2024-05-09T05:12:48.763Z,95.2361
2024-05-09T05:13:48.852Z,95.3436
2024-05-09T05:14:49.511Z,95.3219
2024-05-09T05:15:50.536Z,95.3610
2024-05-09T05:16:50.568Z,95.1888
2024-05-09T05:18:02.753Z,95.1092
2024-05-09T05:19:02.946Z,95.2270
2024-05-09T05:20:04.707Z,95.2972
2024-05-09T05:21:05.032Z,95.2181
2024-05-09T05:22:05.129Z,95.1324
2024-05-09T05:23:05.205Z,95.1092
2024-05-09T05:24:05.285Z,95.0860
2024-05-09T05:25:05.361Z,95.1095
2024-05-09T05:26:17.309Z,95.1006
2024-05-09T05:27:17.330Z,94.8406
2024-05-09T05:28:29.270Z,94.7341
2024-05-09T05:29:29.398Z,95.0039
2024-05-09T05:30:34.443Z,95.0820
2024-05-09T05:31:36.467Z,94.8687
2024-05-09T05:32:36.583Z,94.8443
2024-05-09T05:33:36.944Z,95.0472
2024-05-09T05:34:37.044Z,95.0051
2024-05-09T05:35:37.196Z,95.0823
2024-05-09T05:36:37.299Z,95.0863
2024-05-09T05:37:37.374Z,95.0875
2024-05-09T05:38:37.523Z,95.2154
2024-05-09T05:39:37.532Z,95.2331
2024-05-09T05:40:38.764Z,95.3384
2024-05-09T05:41:40.077Z,94.9914
2024-05-09T05:42:40.131Z,95.2535
2024-05-09T05:43:40.315Z,95.0762
2024-05-09T05:44:40.452Z,94.7466
2024-05-09T05:45:40.562Z,94.7881
2024-05-09T05:46:41.659Z,94.8144
2024-05-09T05:47:42.139Z,94.4091
2024-05-09T05:48:42.495Z,94.2495
2024-05-09T05:49:42.683Z,94.4057
2024-05-09T05:50:42.855Z,94.6746
2024-05-09T05:51:43.176Z,94.6233
2024-05-09T05:52:43.440Z,94.4921
2024-05-09T05:53:43.555Z,94.5241
2024-05-09T05:54:43.705Z,94.7265
2024-05-09T05:55:43.890Z,94.8730
2024-05-09T05:56:44.141Z,94.8675
2024-05-09T05:57:44.367Z,94.6981
2024-05-09T05:58:44.575Z,94.2538
2024-05-09T05:59:44.800Z,94.3688
2024-05-09T06:00:45.044Z,94.2596
2024-05-09T06:01:45.472Z,94.3929
2024-05-09T06:02:45.868Z,94.3941
2024-05-09T06:03:47.335Z,94.6294
2024-05-09T06:04:47.646Z,95.0140
2024-05-09T06:05:47.866Z,95.0121
2024-05-09T06:06:48.115Z,94.9319
2024-05-09T06:07:49.287Z,94.7482
2024-05-09T06:08:49.388Z,94.6752
2024-05-09T06:09:50.652Z,94.9810
2024-05-09T06:10:50.805Z,95.0765
2024-05-09T06:11:52.151Z,94.4250
2024-05-09T06:12:52.130Z,93.4310
2024-05-09T06:13:52.236Z,93.7148
2024-05-09T06:14:52.407Z,93.9486
2024-05-09T06:15:52.454Z,94.4973
2024-05-09T06:16:54.102Z,94.4649
2024-05-09T06:17:55.752Z,94.5843
2024-05-09T06:18:56.567Z,94.7720
2024-05-09T06:19:56.615Z,94.7631
2024-05-09T06:20:56.851Z,94.5440
2024-05-09T06:21:56.919Z,94.3340
2024-05-09T06:22:56.926Z,94.3969
2024-05-09T06:23:56.984Z,94.0294
2024-05-09T06:25:08.814Z,93.7128
2024-05-09T06:26:20.716Z,92.8267
2024-05-09T06:27:32.577Z,93.0386
2024-05-09T06:28:32.560Z,92.9134
2024-05-09T06:29:44.384Z,93.3005
2024-05-09T06:30:44.341Z,93.3227
2024-05-09T06:31:59.495Z,93.5726
2024-05-09T06:33:00.366Z,93.1978
2024-05-09T06:34:12.536Z,92.5958
2024-05-09T06:35:12.602Z,92.6525
2024-05-09T06:36:13.521Z,92.8475
2024-05-09T06:37:25.362Z,92.6876
2024-05-09T06:38:37.268Z,92.4956
2024-05-09T06:39:37.183Z,92.0006
2024-05-09T06:40:49.034Z,91.7647
2024-05-09T06:42:00.823Z,92.1475
2024-05-09T06:43:12.682Z,92.1866
2024-05-09T06:44:12.695Z,91.6060
2024-05-09T06:45:12.716Z,91.4211
2024-05-09T06:46:24.525Z,90.3947
2024-05-09T06:47:36.534Z,90.5488
2024-05-09T06:48:36.767Z,89.4121
2024-05-09T06:49:36.815Z,90.2553
2024-05-09T06:50:38.347Z,90.0417
2024-05-09T06:51:39.594Z,89.9971
2024-05-09T06:52:41.517Z,90.0255
2024-05-09T06:53:41.486Z,90.2663
2024-05-09T06:54:41.577Z,90.1396
2024-05-09T06:55:41.428Z,90.7494
2024-05-09T06:56:53.211Z,90.5432
2024-05-09T06:58:04.938Z,90.0610
2024-05-09T06:59:16.743Z,89.9588
2024-05-09T07:00:35.599Z,89.8075
2024-05-09T07:01:35.287Z,89.0922
2024-05-09T07:02:47.066Z,90.1511
2024-05-09T07:03:47.135Z,90.9908
2024-05-09T07:04:47.241Z,91.5288
2024-05-09T07:05:48.569Z,91.7681
2024-05-09T07:06:50.937Z,90.1796
2024-05-09T07:07:50.923Z,88.9412
2024-05-09T07:08:52.448Z,89.0996
2024-05-09T07:09:52.626Z,90.1335
2024-05-09T07:10:52.784Z,90.9075
2024-05-09T07:11:52.984Z,90.4649
2024-05-09T07:12:53.234Z,90.0923
2024-05-09T07:13:53.207Z,89.4847
2024-05-09T07:14:53.583Z,90.5382
2024-05-09T07:15:53.516Z,89.5341
2024-05-09T07:17:05.404Z,89.6399
2024-05-09T07:18:05.497Z,88.7559
2024-05-09T07:19:05.686Z,90.0511
2024-05-09T07:20:08.963Z,90.2403
2024-05-09T07:21:09.366Z,90.1689
2024-05-09T07:22:21.156Z,90.5122
2024-05-09T07:23:32.905Z,89.7988
2024-05-09T07:24:44.778Z,89.9390
2024-05-09T07:25:56.587Z,90.3471
2024-05-09T07:27:08.266Z,90.8250
2024-05-09T07:28:19.960Z,91.0753
2024-05-09T07:29:32.989Z,90.2866
2024-05-09T07:30:35.171Z,90.3856
2024-05-09T07:31:35.215Z,89.8592
2024-05-09T07:32:47.096Z,89.2927
2024-05-09T07:33:47.148Z,89.1975
2024-05-09T07:34:47.192Z,88.9326
2024-05-09T07:35:58.933Z,89.7965
2024-05-09T07:37:10.643Z,89.8583
2024-05-09T07:38:22.512Z,88.5626
2024-05-09T07:39:22.670Z,88.8478
2024-05-09T07:40:36.644Z,88.8978
2024-05-09T07:41:37.486Z,88.7544
2024-05-09T07:42:37.541Z,88.8215
2024-05-09T07:43:50.276Z,88.9825
2024-05-09T07:44:51.277Z,89.5061
2024-05-09T07:46:48.234Z,89.0107
2024-05-09T07:48:14.696Z,88.6720
2024-05-09T07:49:45.087Z,89.4725
2024-05-09T07:53:08.679Z,88.3589
2024-05-09T07:53:33.658Z,88.6821
2024-05-09T07:53:47.320Z,89.1218
2024-05-09T07:54:49.818Z,89.0877
2024-05-09T07:55:51.072Z,89.3666
2024-05-09T07:56:51.221Z,87.8975
2024-05-09T07:57:51.609Z,87.6088
2024-05-09T07:58:52.172Z,89.0532
2024-05-09T07:59:52.294Z,88.9381
2024-05-09T08:00:52.379Z,89.6159
2024-05-09T08:01:52.464Z,87.2895
2024-05-09T08:02:52.730Z,87.1946
2024-05-09T08:03:53.090Z,88.3055
2024-05-09T08:04:53.295Z,87.1971
2024-05-09T08:05:54.453Z,87.1052
2024-05-09T08:06:54.568Z,87.0262
2024-05-09T08:07:55.583Z,86.9276
2024-05-09T08:09:11.116Z,85.7290
2024-05-09T08:10:15.471Z,86.6136
2024-05-09T08:11:18.933Z,85.9156
2024-05-09T08:12:30.847Z,86.9940
2024-05-09T08:13:42.585Z,85.7427
2024-05-09T08:14:56.198Z,85.0647
2024-05-09T08:16:07.972Z,85.7933
2024-05-09T08:17:19.800Z,87.8670
2024-05-09T08:18:31.883Z,85.4841
2024-05-09T08:19:32.006Z,86.6120
2024-05-09T08:20:43.727Z,86.3261
2024-05-09T08:21:55.540Z,86.6771
2024-05-09T08:23:07.336Z,88.0980
2024-05-09T08:24:19.128Z,87.5573
2024-05-09T08:25:30.916Z,87.6862
2024-05-09T08:26:42.682Z,87.4550
2024-05-09T08:27:54.452Z,87.8559
2024-05-09T08:28:54.505Z,87.7452
2024-05-09T08:31:17.970Z,88.5135
2024-05-09T08:32:29.938Z,88.8144
2024-05-09T08:33:31.236Z,89.0837
2024-05-09T08:34:31.216Z,87.8285
2024-05-09T08:35:31.293Z,88.0623
2024-05-09T08:36:43.163Z,87.2211
2024-05-09T08:37:43.278Z,87.6826
2024-05-09T08:38:43.386Z,87.9304
2024-05-09T08:39:43.369Z,88.1016
2024-05-09T08:40:43.433Z,87.5526
2024-05-09T08:41:44.359Z,86.8449
2024-05-09T08:42:56.166Z,87.6610
2024-05-09T08:44:07.884Z,88.5443
2024-05-09T08:45:19.617Z,88.3528
2024-05-09T08:46:31.361Z,88.1837
2024-05-09T08:47:31.787Z,87.7964
2024-05-09T08:48:33.095Z,87.5700
2024-05-09T08:49:33.263Z,87.5132
2024-05-09T08:50:38.535Z,86.0395
2024-05-09T08:51:41.058Z,86.1985
2024-05-09T08:52:41.093Z,86.3130
2024-05-09T08:53:41.052Z,87.0185
2024-05-09T08:54:52.846Z,85.1077
2024-05-09T08:56:04.670Z,84.5589
2024-05-09T08:57:16.523Z,84.5202
2024-05-09T08:58:16.797Z,84.4743
2024-05-09T08:59:16.831Z,84.8072
2024-05-09T09:00:35.948Z,85.1108
2024-05-09T09:01:34.398Z,87.0204
2024-05-09T09:02:34.694Z,85.3413
2024-05-09T09:03:34.815Z,83.6384
2024-05-09T09:04:34.955Z,84.2774
2024-05-09T09:05:46.750Z,83.7802
2024-05-09T09:06:59.767Z,84.6456
2024-05-09T09:08:00.294Z,85.8360
2024-05-09T09:09:12.302Z,84.4572
2024-05-09T09:10:29.884Z,85.7956
2024-05-09T09:11:31.614Z,85.3562
2024-05-09T09:12:31.620Z,86.1204
2024-05-09T09:13:43.437Z,85.9714
2024-05-09T09:14:55.183Z,85.4350
2024-05-09T09:16:07.045Z,85.1125
2024-05-09T09:17:07.003Z,85.2909
2024-05-09T09:18:19.272Z,86.0227
2024-05-09T09:19:19.432Z,86.1418
2024-05-09T09:20:26.269Z,86.5345
2024-05-09T09:21:25.286Z,86.7573
2024-05-09T09:22:38.094Z,85.7938
2024-05-09T09:23:38.037Z,84.8438
2024-05-09T09:24:49.895Z,84.9088
2024-05-09T09:26:01.751Z,84.8898
2024-05-09T09:27:13.606Z,85.3681
2024-05-09T09:28:25.427Z,85.2201
2024-05-09T09:29:37.211Z,84.8984
2024-05-09T09:30:48.973Z,84.2466
2024-05-09T09:32:00.701Z,84.0220
2024-05-09T09:33:12.550Z,84.5075
2024-05-09T09:34:24.642Z,83.5396
2024-05-09T09:35:24.556Z,83.4000
2024-05-09T09:36:36.292Z,82.9608
2024-05-09T09:37:47.984Z,82.9414
2024-05-09T09:38:59.758Z,84.1235
2024-05-09T09:40:13.311Z,83.1108
2024-05-09T09:41:13.609Z,84.1968
2024-05-09T09:42:25.299Z,82.1991
2024-05-09T09:43:37.110Z,81.2505
2024-05-09T09:44:57.794Z,83.3206
2024-05-09T09:45:54.712Z,84.5676
2024-05-09T09:47:07.120Z,84.4999
2024-05-09T09:48:07.036Z,82.2357
2024-05-09T09:49:19.826Z,82.9419
2024-05-09T09:50:34.572Z,83.7008
2024-05-09T09:51:35.447Z,82.7042
2024-05-09T09:52:35.395Z,82.9673
2024-05-09T09:53:47.208Z,82.2657
2024-05-09T09:54:58.994Z,83.2703
2024-05-09T09:55:58.975Z,81.2482
2024-05-09T09:57:10.636Z,83.2748
2024-05-09T09:58:22.395Z,79.7772
2024-05-09T09:59:34.177Z,79.8665
2024-05-09T10:00:46.328Z,79.4830
2024-05-09T10:01:46.338Z,80.3784
2024-05-09T10:02:58.084Z,81.4995
2024-05-09T10:04:09.812Z,78.6834
2024-05-09T10:05:21.754Z,80.5475
2024-05-09T10:06:21.670Z,80.7556
2024-05-09T10:07:22.508Z,79.6478
2024-05-09T10:08:34.164Z,76.9416
2024-05-09T10:09:45.895Z,77.5662
2024-05-09T10:10:58.668Z,77.4258
2024-05-09T10:12:10.402Z,75.5830
2024-05-09T10:13:22.054Z,75.5347
2024-05-09T10:14:33.702Z,76.4866
2024-05-09T10:15:34.580Z,78.1775
2024-05-09T10:16:46.198Z,77.8579
2024-05-09T10:17:57.908Z,77.8279
2024-05-09T10:19:09.671Z,78.3332
2024-05-09T10:20:27.715Z,77.9950
2024-05-09T10:21:27.923Z,75.9805
2024-05-09T10:22:39.529Z,75.2773
2024-05-09T10:23:51.209Z,78.1361
2024-05-09T10:25:04.821Z,76.9106
2024-05-09T10:26:05.922Z,74.3148
2024-05-09T10:27:06.127Z,75.4897
2024-05-09T10:28:17.788Z,76.1077
2024-05-09T10:29:18.797Z,75.2557
2024-05-09T10:30:35.801Z,76.2089
2024-05-09T10:31:36.246Z,74.5849
2024-05-09T10:32:47.959Z,74.5721
2024-05-09T10:33:59.995Z,76.3592
2024-05-09T10:35:00.082Z,74.1317
2024-05-09T10:36:00.009Z,72.4489
2024-05-09T10:37:11.623Z,73.7275
2024-05-09T10:38:23.202Z,76.5540
2024-05-09T10:39:34.940Z,77.3388
2024-05-09T10:40:46.526Z,74.0065
2024-05-09T10:41:58.189Z,73.7181
2024-05-09T10:43:09.838Z,74.7316
2024-05-09T10:44:21.359Z,74.5963
2024-05-09T10:45:32.957Z,76.0787
2024-05-09T10:46:44.553Z,75.9065
2024-05-09T10:47:56.377Z,76.8391
2024-05-09T10:49:08.186Z,77.3337
2024-05-09T10:50:25.552Z,77.0581
2024-05-09T10:51:25.773Z,79.0735
2024-05-09T10:52:37.352Z,78.5361
2024-05-09T10:53:48.954Z,77.8599
2024-05-09T10:55:01.694Z,76.3437
2024-05-09T10:56:04.041Z,77.2302
2024-05-09T10:57:15.591Z,75.9958
2024-05-09T10:58:27.238Z,76.8658
2024-05-09T10:59:38.950Z,76.1550
2024-05-09T11:00:50.582Z,75.3554
2024-05-09T11:02:02.415Z,75.9968
2024-05-09T11:03:14.043Z,73.2550
2024-05-09T11:04:25.714Z,74.6024
2024-05-09T11:05:37.563Z,75.6893
2024-05-09T11:06:37.498Z,75.5895
2024-05-09T11:07:37.447Z,74.0023
2024-05-09T11:08:49.055Z,74.1558
2024-05-09T11:10:00.801Z,75.3824
2024-05-09T11:11:12.463Z,71.2853
2024-05-09T11:12:24.987Z,71.0704
2024-05-09T11:13:24.984Z,74.0310
2024-05-09T11:14:36.570Z,72.4254
2024-05-09T11:15:48.213Z,73.8371
2024-05-09T11:16:59.970Z,73.7771
2024-05-09T11:18:11.792Z,71.9448
2024-05-09T11:19:11.787Z,73.2723
2024-05-09T11:20:29.444Z,71.8858
2024-05-09T11:21:29.312Z,71.6356
2024-05-09T11:22:41.627Z,71.8624
2024-05-09T11:23:41.834Z,70.7240
2024-05-09T11:24:41.703Z,72.4349
2024-05-09T11:25:53.390Z,72.6434
2024-05-09T11:27:05.031Z,72.4300
2024-05-09T11:28:16.833Z,71.0417
2024-05-09T11:29:19.236Z,68.0189
2024-05-09T11:30:26.559Z,69.9397
2024-05-09T11:31:25.450Z,68.0894
2024-05-09T11:32:25.528Z,69.5717
2024-05-09T11:33:25.492Z,73.0535
2024-05-09T11:34:37.095Z,70.8858
2024-05-09T11:35:48.713Z,70.5102
2024-05-09T11:37:00.433Z,72.4488
2024-05-09T11:38:12.088Z,72.5475
2024-05-09T11:39:23.907Z,74.1421
2024-05-09T11:40:25.998Z,70.9480
2024-05-09T11:41:29.323Z,72.0555
2024-05-09T11:42:40.873Z,71.2431
2024-05-09T11:43:52.617Z,72.5007
2024-05-09T11:45:04.147Z,72.9310
2024-05-09T11:46:15.903Z,71.8705
2024-05-09T11:47:27.588Z,71.4389
2024-05-09T11:48:39.380Z,70.8354
2024-05-09T11:49:39.416Z,71.9603
2024-05-09T11:50:51.064Z,73.5698
2024-05-09T11:52:02.710Z,74.4765
2024-05-09T11:53:14.265Z,72.0918
2024-05-09T11:54:25.821Z,71.0094
2024-05-09T11:55:37.334Z,73.6876
2024-05-09T11:56:48.986Z,73.9920
2024-05-09T11:58:00.611Z,74.5754
2024-05-09T11:59:12.271Z,73.7329
2024-05-09T12:00:33.564Z,74.4170
2024-05-09T12:01:29.938Z,72.8994
2024-05-09T12:02:29.909Z,74.9560
2024-05-09T12:03:41.682Z,75.0045
2024-05-09T12:04:53.424Z,76.3536
2024-05-09T12:05:53.325Z,76.3220
2024-05-09T12:07:05.043Z,73.6365
2024-05-09T12:08:16.684Z,73.0088
2024-05-09T12:09:28.395Z,73.3260
2024-05-09T12:10:40.127Z,73.3740
2024-05-09T12:11:51.919Z,73.0317
2024-05-09T12:13:05.549Z,72.5236
2024-05-09T12:14:06.909Z,71.9963
2024-05-09T12:15:18.578Z,70.7296
2024-05-09T12:16:30.337Z,70.7635
2024-05-09T12:17:31.228Z,71.7211
2024-05-09T12:18:31.178Z,68.0168
2024-05-09T12:19:42.831Z,69.9321
2024-05-09T12:20:54.622Z,74.4831
2024-05-09T12:22:06.286Z,72.7509
2024-05-09T12:23:17.883Z,70.2762
2024-05-09T12:24:29.508Z,71.7947
2024-05-09T12:25:41.237Z,70.3998
2024-05-09T12:26:52.945Z,71.7904
2024-05-09T12:28:04.647Z,71.1910
2024-05-09T12:29:16.280Z,69.6506
2024-05-09T12:30:35.760Z,69.6518
2024-05-09T12:31:34.349Z,70.2608
2024-05-09T12:32:46.531Z,71.0676
2024-05-09T12:33:46.541Z,69.6529
2024-05-09T12:34:46.427Z,66.3362
2024-05-09T12:35:58.158Z,66.4978
2024-05-09T12:37:10.176Z,64.8577
2024-05-09T12:38:10.127Z,64.8389
2024-05-09T12:39:21.784Z,66.3765
2024-05-09T12:40:36.971Z,66.6438
2024-05-09T12:41:39.271Z,67.7876
2024-05-09T12:42:40.002Z,67.8318
2024-05-09T12:43:51.569Z,68.0341
2024-05-09T12:45:03.199Z,69.2788
2024-05-09T12:46:14.923Z,70.4445
2024-05-09T12:47:15.192Z,70.1616
2024-05-09T12:48:27.156Z,69.4148
2024-05-09T12:49:27.164Z,69.2723
2024-05-09T12:50:32.214Z,67.6320
2024-05-09T12:51:33.327Z,65.9669
2024-05-09T12:52:45.096Z,67.7663
2024-05-09T12:53:45.942Z,68.0922
2024-05-09T12:54:57.703Z,65.0011
2024-05-09T12:56:01.843Z,64.6348
2024-05-09T12:57:03.485Z,65.9904
2024-05-09T12:58:15.485Z,66.2918